Tenafly, NJ

1:07 AM EST on January 27, 2015 (GMT -0500)
News 12 Weather Station | Change Station
CLOSE
Current Station
Personal Weather Station
Location: Yonkers, NY
Elevation: -9999 ft
Nearby Weather Stations

Elev -9999 ft 40.92 °N, 73.88 °W | Updated 1 minute ago

Snow
Snow
21.2 °F
Feels Like 21 °F
N
0.0
Wind Variable Wind from North

Today
High -- | Low -- °F
--% Chance of Precip.
Yesterday
High -- | Low -- °F
Precip. -- in
7:11 AM 5:06 PM
Waxing Crescent, 51% visible
Pressure 29.69 in
Visibility 1.0 miles
Clouds
Windchill 21 °F
Dew Point 21 °F
Humidity 100%
Rainfall -9999.00 in
Snow Depth Not available.
UV Not available.
Pollen .10 out of 12
Air Quality Not available.
Flu Activity Not available.
SPECI KTEB 270558Z 02008KT 1SM R06/P6000FT SN BLSN VV015 M05/M08 A2969 RMK AO2 P0000

More Conditions Fewer Conditions

Pressure 29.69 in
Visibility 1.0 miles
Clouds
Windchill 21 °F
Dew Point 21 °F
Humidity 100%
Rainfall -9999.00 in
Snow Depth Not available.
UV Not available.
Pollen .10 out of 12
Air Quality Not available.
Flu Activity Not available.
SPECI KTEB 270558Z 02008KT 1SM R06/P6000FT SN BLSN VV015 M05/M08 A2969 RMK AO2 P0000

More Conditions Fewer Conditions

10-Day Weather Forecast

Almanac

Astronomy

Jan. 27, 2015 Rise Set
Actual Time
Civil Twilight
Nautical Twilight
Astronomical Twilight
Moon
Length of Visible Light
Length of Day
Tomorrow will be .
, % of the Moon is Illuminated

Today's Extremes

State Highs State Lows

Community

WunderPhotos

Upload Photos

1,790,542 photos uploaded!

WunderBlogs® & News

Nearby

Air Quality

  Air Quality AQ Index Pollutant
Not available.

Snow Depth

Station Depth Elevation

Earthquake Activity

City Distance Mag. Time & Date
Minimum magnitude displayed is 2.5.

Coastal Water Temperatures

Place Temperature

Nearby Weather Stations